createdAt,value
2019-02-26T00:00:51.934Z,20.60
2019-02-26T00:01:53.000Z,20.40
2019-02-26T00:02:52.995Z,20.10
2019-02-26T00:03:51.181Z,20.00
2019-02-26T00:04:53.521Z,20.70
2019-02-26T00:05:52.224Z,20.00
2019-02-26T00:06:51.838Z,20.90
2019-02-26T00:07:52.921Z,20.90
2019-02-26T00:08:53.323Z,20.90
2019-02-26T00:09:53.248Z,20.40
2019-02-26T00:10:54.731Z,19.00
2019-02-26T00:11:51.232Z,20.90
2019-02-26T00:12:51.230Z,20.10
2019-02-26T00:13:52.428Z,19.90
2019-02-26T00:14:52.923Z,20.10
2019-02-26T00:15:51.250Z,20.80
2019-02-26T00:16:51.250Z,20.30
2019-02-26T00:17:52.898Z,20.90
2019-02-26T00:18:51.274Z,19.20
2019-02-26T00:19:51.285Z,20.90
2019-02-26T00:20:51.279Z,21.30
2019-02-26T00:21:51.890Z,21.10
2019-02-26T00:22:52.962Z,20.50
2019-02-26T00:23:53.057Z,20.60
2019-02-26T00:24:51.295Z,21.40
2019-02-26T00:25:51.311Z,20.90
2019-02-26T00:26:51.313Z,20.80
2019-02-26T00:27:52.425Z,20.80
2019-02-26T00:28:51.330Z,20.80
2019-02-26T00:29:53.019Z,20.80
2019-02-26T00:30:51.330Z,21.60
2019-02-26T00:31:53.001Z,20.70
2019-02-26T00:32:53.114Z,24.30
2019-02-26T00:33:51.353Z,26.00
2019-02-26T00:34:53.082Z,22.80
2019-02-26T00:35:51.370Z,20.80
2019-02-26T00:36:51.380Z,20.90
2019-02-26T00:37:53.310Z,20.70
2019-02-26T00:38:51.395Z,21.40
2019-02-26T00:39:51.772Z,22.60
2019-02-26T00:40:51.404Z,23.80
2019-02-26T00:41:53.534Z,27.50
2019-02-26T00:42:54.351Z,22.50
2019-02-26T00:43:53.513Z,22.40
2019-02-26T00:44:53.635Z,22.30
2019-02-26T00:45:53.340Z,21.40
2019-02-26T00:46:53.416Z,20.90
2019-02-26T00:47:51.442Z,20.90
2019-02-26T00:48:51.446Z,20.80
2019-02-26T00:49:53.387Z,21.10
2019-02-26T00:50:52.265Z,22.20
2019-02-26T00:51:52.772Z,21.90
2019-02-26T00:52:52.322Z,22.30
2019-02-26T00:53:53.323Z,20.50
2019-02-26T00:54:53.598Z,21.20
2019-02-26T00:55:51.643Z,21.40
2019-02-26T00:56:51.495Z,21.00
2019-02-26T00:57:51.498Z,21.90
2019-02-26T00:58:51.506Z,21.30
2019-02-26T00:59:51.525Z,22.10
2019-02-26T01:00:51.516Z,21.80
2019-02-26T01:01:52.548Z,24.20
2019-02-26T01:02:51.538Z,23.30
2019-02-26T01:03:51.945Z,22.50
2019-02-26T01:04:51.540Z,20.60
2019-02-26T01:05:51.552Z,20.50
2019-02-26T01:06:51.556Z,21.60
2019-02-26T01:07:52.633Z,20.90
2019-02-26T01:08:51.554Z,21.20
2019-02-26T01:09:52.400Z,21.70
2019-02-26T01:10:51.575Z,21.40
2019-02-26T01:11:52.019Z,21.70
2019-02-26T01:12:51.599Z,20.80
2019-02-26T01:13:52.814Z,21.40
2019-02-26T01:14:51.607Z,21.40
2019-02-26T01:15:51.612Z,22.10
2019-02-26T01:16:51.620Z,22.60
2019-02-26T01:17:51.630Z,22.60
2019-02-26T01:18:53.195Z,22.20
2019-02-26T01:19:51.645Z,21.70
2019-02-26T01:20:52.583Z,21.30
2019-02-26T01:21:51.637Z,20.90
2019-02-26T01:22:51.642Z,21.20
2019-02-26T01:23:51.643Z,21.00
2019-02-26T01:24:51.955Z,21.70
2019-02-26T01:25:54.185Z,21.80
2019-02-26T01:27:53.223Z,20.70
2019-02-26T01:28:53.570Z,21.20
2019-02-26T01:29:53.526Z,22.10
2019-02-26T01:30:55.657Z,21.20
2019-02-26T01:31:51.693Z,22.20
2019-02-26T01:32:51.703Z,21.50
2019-02-26T01:33:52.965Z,21.90
2019-02-26T01:34:51.712Z,21.60
2019-02-26T01:35:52.938Z,21.40
2019-02-26T01:36:51.734Z,22.30
2019-02-26T01:37:53.664Z,21.30
2019-02-26T01:38:53.149Z,22.20
2019-02-26T01:39:52.218Z,21.90
2019-02-26T01:40:53.665Z,22.00
2019-02-26T01:41:54.063Z,21.00
2019-02-26T01:42:54.623Z,22.10
2019-02-26T01:43:51.760Z,22.20
2019-02-26T01:45:54.957Z,21.40
2019-02-26T01:46:53.346Z,22.00
2019-02-26T01:47:52.792Z,21.90
2019-02-26T01:48:53.058Z,22.20
2019-02-26T01:49:51.801Z,22.70
2019-02-26T01:50:52.594Z,22.20
2019-02-26T01:51:53.841Z,22.10
2019-02-26T01:52:52.351Z,22.60
2019-02-26T01:53:53.585Z,22.20
2019-02-26T01:54:53.566Z,21.20
2019-02-26T01:55:51.826Z,22.10
2019-02-26T01:56:53.405Z,21.90
2019-02-26T01:57:51.844Z,21.60
2019-02-26T01:58:56.540Z,21.90
2019-02-26T01:59:51.849Z,22.10
2019-02-26T02:00:55.333Z,21.70
2019-02-26T02:01:53.614Z,22.00
2019-02-26T02:02:51.862Z,21.90
2019-02-26T02:03:53.859Z,22.20
2019-02-26T02:04:51.894Z,22.00
2019-02-26T02:05:52.998Z,21.70
2019-02-26T02:06:51.896Z,21.70
2019-02-26T02:07:53.599Z,21.60
2019-02-26T02:08:53.566Z,20.70
2019-02-26T02:09:53.264Z,22.60
2019-02-26T02:10:56.334Z,22.00
2019-02-26T02:11:51.919Z,22.30
2019-02-26T02:12:55.215Z,21.90
2019-02-26T02:13:51.926Z,21.50
2019-02-26T02:14:51.930Z,21.30
2019-02-26T02:15:51.948Z,22.10
2019-02-26T02:16:51.939Z,22.00
2019-02-26T02:17:51.952Z,20.90
2019-02-26T02:18:53.571Z,22.00
2019-02-26T02:19:51.963Z,22.00
2019-02-26T02:20:51.974Z,22.20
2019-02-26T02:21:53.815Z,21.40
2019-02-26T02:22:51.972Z,21.10
2019-02-26T02:23:52.952Z,21.50
2019-02-26T02:24:53.948Z,22.50
2019-02-26T02:25:51.994Z,21.20
2019-02-26T02:26:53.553Z,22.00
2019-02-26T02:27:54.498Z,21.00
2019-02-26T02:28:52.009Z,21.50
2019-02-26T02:29:54.849Z,21.70
2019-02-26T02:30:52.015Z,21.80
2019-02-26T02:31:52.355Z,21.30
2019-02-26T02:32:55.082Z,20.10
2019-02-26T02:33:52.040Z,20.20
2019-02-26T02:34:52.047Z,21.50
2019-02-26T02:35:52.046Z,21.10
2019-02-26T02:36:52.044Z,21.10
2019-02-26T02:37:53.538Z,20.60
2019-02-26T02:38:52.064Z,20.00
2019-02-26T02:39:52.064Z,20.40
2019-02-26T02:40:54.754Z,21.50
2019-02-26T02:41:54.837Z,21.30
2019-02-26T02:42:52.089Z,20.60
2019-02-26T02:43:52.089Z,19.80
2019-02-26T02:44:52.801Z,21.90
2019-02-26T02:45:53.115Z,20.90
2019-02-26T02:46:52.103Z,20.70
2019-02-26T02:47:55.025Z,21.80
2019-02-26T02:48:52.118Z,21.40
2019-02-26T02:49:52.124Z,21.30
2019-02-26T02:50:52.176Z,21.50
2019-02-26T02:51:52.133Z,20.90
2019-02-26T02:52:53.596Z,21.60
2019-02-26T02:53:54.101Z,21.40
2019-02-26T02:54:52.150Z,20.70
2019-02-26T02:55:52.155Z,20.70
2019-02-26T02:56:52.159Z,20.80
2019-02-26T02:57:54.962Z,19.90
2019-02-26T02:58:52.171Z,20.00
2019-02-26T02:59:54.325Z,21.30
2019-02-26T03:00:54.058Z,20.60
2019-02-26T03:01:54.820Z,20.30
2019-02-26T03:02:53.117Z,20.90
2019-02-26T03:03:53.846Z,20.20
2019-02-26T03:04:52.200Z,20.70
2019-02-26T03:05:52.200Z,19.60
2019-02-26T03:06:53.009Z,20.40
2019-02-26T03:07:54.052Z,20.30
2019-02-26T03:08:53.524Z,19.10
2019-02-26T03:09:52.229Z,20.00
2019-02-26T03:10:52.226Z,20.30
2019-02-26T03:11:53.051Z,18.70
2019-02-26T03:12:55.156Z,19.30
2019-02-26T03:13:53.880Z,19.50
2019-02-26T03:14:52.245Z,20.50
2019-02-26T03:15:53.548Z,19.20
2019-02-26T03:16:53.434Z,19.00
2019-02-26T03:17:52.266Z,18.80
2019-02-26T03:18:52.269Z,19.10
2019-02-26T03:19:52.275Z,19.30
2019-02-26T03:20:53.820Z,18.90
2019-02-26T03:21:52.584Z,19.90
2019-02-26T03:22:52.289Z,19.80
2019-02-26T03:23:52.292Z,21.40
2019-02-26T03:24:54.379Z,19.10
2019-02-26T03:25:54.865Z,19.60
2019-02-26T03:26:52.304Z,19.70
2019-02-26T03:27:52.311Z,18.90
2019-02-26T03:28:53.271Z,20.20
2019-02-26T03:29:53.369Z,19.90
2019-02-26T03:30:52.327Z,21.20
2019-02-26T03:31:55.236Z,20.30
2019-02-26T03:32:58.257Z,20.60
2019-02-26T03:33:59.960Z,20.50
2019-02-26T03:34:52.351Z,18.90
2019-02-26T03:35:52.352Z,18.80
2019-02-26T03:36:52.354Z,19.70
2019-02-26T03:37:57.264Z,19.70
2019-02-26T03:38:54.790Z,19.50
2019-02-26T03:39:54.585Z,18.90
2019-02-26T03:40:54.689Z,19.20
2019-02-26T03:41:53.596Z,19.60
2019-02-26T03:42:52.388Z,18.60
2019-02-26T03:43:54.297Z,19.20
2019-02-26T03:44:52.397Z,19.10
2019-02-26T03:45:52.414Z,18.80
2019-02-26T03:46:52.411Z,18.50
2019-02-26T03:47:55.293Z,19.30
2019-02-26T03:48:52.429Z,18.60
2019-02-26T03:49:52.450Z,18.60
2019-02-26T03:50:52.435Z,19.20
2019-02-26T03:51:52.428Z,19.50
2019-02-26T03:52:52.436Z,19.40
2019-02-26T03:53:52.444Z,20.10
2019-02-26T03:54:52.444Z,21.00
2019-02-26T03:55:52.447Z,21.30
2019-02-26T03:56:52.455Z,20.30
2019-02-26T03:57:54.381Z,18.40
2019-02-26T03:58:56.964Z,19.00
2019-02-26T03:59:52.466Z,18.80
2019-02-26T04:00:52.467Z,19.40
2019-02-26T04:01:52.477Z,19.80
2019-02-26T04:02:52.486Z,20.40
2019-02-26T04:03:54.668Z,20.20
2019-02-26T04:04:54.255Z,20.60
2019-02-26T04:05:52.499Z,19.60
2019-02-26T04:06:52.502Z,20.00
2019-02-26T04:07:55.603Z,20.60
2019-02-26T04:08:53.585Z,20.60
2019-02-26T04:09:53.829Z,19.50
2019-02-26T04:10:53.700Z,19.30
2019-02-26T04:11:53.416Z,20.30
2019-02-26T04:12:55.303Z,20.20
2019-02-26T04:13:54.560Z,19.50
2019-02-26T04:14:52.544Z,19.90
2019-02-26T04:15:54.093Z,20.80
2019-02-26T04:16:52.549Z,20.60
2019-02-26T04:17:52.555Z,20.80
2019-02-26T04:18:52.561Z,20.60
2019-02-26T04:19:52.563Z,19.60
2019-02-26T04:20:52.567Z,20.40
2019-02-26T04:21:52.569Z,19.50
2019-02-26T04:22:56.026Z,20.40
2019-02-26T04:23:52.582Z,19.90
2019-02-26T04:24:54.930Z,20.20
2019-02-26T04:25:54.058Z,21.10
2019-02-26T04:26:52.599Z,19.60
2019-02-26T04:27:52.599Z,19.50
2019-02-26T04:28:52.698Z,20.70
2019-02-26T04:29:52.615Z,20.40
2019-02-26T04:30:52.613Z,20.70
2019-02-26T04:31:54.539Z,20.50
2019-02-26T04:32:52.625Z,20.50
2019-02-26T04:33:53.713Z,20.80
2019-02-26T04:34:54.624Z,19.50
2019-02-26T04:35:55.410Z,19.60
2019-02-26T04:36:52.638Z,20.00
2019-02-26T04:37:53.246Z,20.50
2019-02-26T04:38:53.225Z,20.00
2019-02-26T04:39:52.652Z,20.00
2019-02-26T04:40:55.437Z,20.80
2019-02-26T04:41:52.661Z,19.40
2019-02-26T04:42:52.664Z,19.60
2019-02-26T04:43:54.896Z,19.20
2019-02-26T04:44:55.187Z,19.50
2019-02-26T04:45:52.677Z,18.90
2019-02-26T04:46:53.926Z,18.90
2019-02-26T04:47:56.978Z,21.70
2019-02-26T04:48:52.696Z,19.70
2019-02-26T04:49:54.430Z,20.60
2019-02-26T04:50:52.699Z,18.90
2019-02-26T04:51:52.706Z,20.90
2019-02-26T04:52:52.709Z,20.90
2019-02-26T04:53:54.159Z,20.30
2019-02-26T04:54:52.717Z,21.00
2019-02-26T04:55:52.719Z,21.00
2019-02-26T04:56:52.735Z,19.60
2019-02-26T04:57:54.040Z,21.00
2019-02-26T04:58:52.740Z,21.10
2019-02-26T04:59:52.746Z,21.20
2019-02-26T05:00:52.747Z,21.10
2019-02-26T05:01:54.992Z,20.60
2019-02-26T05:02:52.757Z,21.40
2019-02-26T05:03:52.761Z,20.60
2019-02-26T05:04:52.770Z,21.00
2019-02-26T05:05:55.995Z,20.30
2019-02-26T05:06:52.771Z,20.80
2019-02-26T05:07:52.779Z,21.70
2019-02-26T05:08:52.782Z,20.50
2019-02-26T05:09:55.865Z,20.90
2019-02-26T05:10:55.029Z,21.00
2019-02-26T05:11:52.799Z,20.90
2019-02-26T05:12:56.170Z,20.40
2019-02-26T05:13:52.804Z,20.80
2019-02-26T05:14:52.813Z,20.20
2019-02-26T05:15:52.807Z,20.40
2019-02-26T05:16:52.821Z,21.00
2019-02-26T05:17:52.824Z,21.00
2019-02-26T05:18:55.011Z,23.90
2019-02-26T05:19:52.834Z,23.80
2019-02-26T05:20:52.849Z,23.90
2019-02-26T05:21:53.622Z,23.70
2019-02-26T05:22:54.680Z,24.80
2019-02-26T05:23:55.021Z,22.70
2019-02-26T05:24:52.946Z,21.80
2019-02-26T05:25:52.865Z,21.90
2019-02-26T05:26:52.870Z,21.40
2019-02-26T05:27:52.868Z,22.30
2019-02-26T05:28:52.876Z,21.80
2019-02-26T05:29:54.763Z,23.00
2019-02-26T05:30:52.881Z,21.50
2019-02-26T05:31:55.435Z,20.60
2019-02-26T05:32:56.604Z,20.20
2019-02-26T05:33:55.348Z,21.30
2019-02-26T05:34:52.896Z,22.30
2019-02-26T05:36:52.915Z,22.70
2019-02-26T05:37:55.486Z,22.20
2019-02-26T05:38:54.640Z,22.40
2019-02-26T05:39:54.566Z,21.90
2019-02-26T05:40:55.321Z,21.60
2019-02-26T05:41:54.990Z,22.80
2019-02-26T05:42:53.349Z,22.80
2019-02-26T05:43:57.842Z,22.70
2019-02-26T05:44:54.524Z,23.10
2019-02-26T05:45:54.864Z,21.90
2019-02-26T05:46:54.226Z,22.00
2019-02-26T05:47:54.733Z,23.60
2019-02-26T05:48:52.969Z,22.20
2019-02-26T05:49:52.967Z,24.40
2019-02-26T05:50:52.963Z,22.50
2019-02-26T05:51:53.490Z,22.80
2019-02-26T05:52:57.611Z,21.80
2019-02-26T05:53:52.985Z,21.90
2019-02-26T05:54:52.985Z,22.30
2019-02-26T05:55:54.183Z,23.00
2019-02-26T05:56:52.992Z,23.60
2019-02-26T05:57:52.999Z,21.40
2019-02-26T05:58:53.005Z,22.00
2019-02-26T05:59:53.008Z,20.40
2019-02-26T06:00:53.006Z,23.20
2019-02-26T06:01:55.435Z,20.80
2019-02-26T06:02:53.018Z,21.70
2019-02-26T06:03:53.014Z,22.00
2019-02-26T06:04:53.056Z,22.60
2019-02-26T06:05:55.627Z,22.00
2019-02-26T06:06:55.605Z,23.10
2019-02-26T06:07:53.061Z,22.60
2019-02-26T06:08:55.232Z,24.50
2019-02-26T06:09:55.725Z,24.70
2019-02-26T06:10:53.056Z,23.80
2019-02-26T06:11:53.053Z,24.10
2019-02-26T06:12:53.067Z,25.40
2019-02-26T06:13:55.536Z,23.00
2019-02-26T06:14:54.157Z,25.10
2019-02-26T06:15:55.226Z,24.70
2019-02-26T06:16:55.424Z,24.80
2019-02-26T06:17:53.931Z,23.80
2019-02-26T06:18:54.443Z,24.10
2019-02-26T06:19:53.083Z,23.60
2019-02-26T06:20:53.618Z,25.80
2019-02-26T06:21:54.810Z,25.40
2019-02-26T06:22:53.100Z,28.10
2019-02-26T06:23:53.103Z,26.10
2019-02-26T06:24:57.287Z,24.40
2019-02-26T06:25:55.157Z,26.10
2019-02-26T06:26:53.123Z,25.70
2019-02-26T06:27:53.128Z,24.70
2019-02-26T06:28:53.121Z,25.00
2019-02-26T06:29:57.250Z,24.50
2019-02-26T06:30:55.044Z,26.20
2019-02-26T06:31:53.142Z,25.10
2019-02-26T06:32:53.139Z,25.60
2019-02-26T06:33:53.146Z,24.70
2019-02-26T06:34:53.163Z,24.40
2019-02-26T06:35:54.800Z,25.10
2019-02-26T06:36:53.308Z,25.00
2019-02-26T06:37:53.163Z,24.60
2019-02-26T06:38:54.164Z,24.50
2019-02-26T06:39:55.659Z,23.50
2019-02-26T06:40:53.173Z,23.70
2019-02-26T06:41:53.173Z,23.80
2019-02-26T06:42:53.185Z,23.50
2019-02-26T06:43:54.967Z,24.20
2019-02-26T06:44:53.189Z,23.60
2019-02-26T06:45:53.189Z,22.80
2019-02-26T06:46:53.197Z,25.00
2019-02-26T06:47:54.609Z,23.10
2019-02-26T06:48:53.203Z,24.40
2019-02-26T06:49:53.210Z,23.10
2019-02-26T06:50:55.177Z,23.90
2019-02-26T06:51:54.315Z,23.60
2019-02-26T06:52:53.222Z,23.50
2019-02-26T06:53:54.267Z,24.00
2019-02-26T06:54:56.889Z,25.40
2019-02-26T06:55:53.235Z,23.10
2019-02-26T06:56:53.260Z,24.40
2019-02-26T06:57:55.190Z,25.20
2019-02-26T06:58:53.248Z,24.80
2019-02-26T06:59:55.509Z,22.90
2019-02-26T07:00:55.368Z,23.40
2019-02-26T07:01:55.597Z,23.40
2019-02-26T07:02:53.264Z,24.10
2019-02-26T07:03:53.858Z,24.20
2019-02-26T07:04:53.273Z,23.40
2019-02-26T07:05:53.279Z,24.50
2019-02-26T07:06:55.220Z,24.60
2019-02-26T07:07:56.551Z,22.60
2019-02-26T07:08:53.579Z,22.30
2019-02-26T07:09:53.296Z,22.80
2019-02-26T07:10:53.303Z,24.30
2019-02-26T07:11:53.307Z,22.60
2019-02-26T07:12:53.313Z,22.80
2019-02-26T07:13:53.895Z,23.60
2019-02-26T07:14:55.345Z,23.40
2019-02-26T07:15:53.326Z,22.70
2019-02-26T07:16:53.326Z,22.00
2019-02-26T07:17:53.337Z,21.60
2019-02-26T07:18:53.332Z,22.80
2019-02-26T07:19:55.470Z,23.20
2019-02-26T07:20:57.251Z,23.40
2019-02-26T07:21:53.351Z,21.70
2019-02-26T07:22:53.360Z,22.00
2019-02-26T07:23:54.598Z,22.00
2019-02-26T07:24:54.011Z,23.20
2019-02-26T07:25:53.368Z,23.20
2019-02-26T07:26:53.381Z,24.10
2019-02-26T07:27:54.201Z,23.90
2019-02-26T07:28:53.381Z,23.70
2019-02-26T07:29:53.388Z,23.50
2019-02-26T07:30:53.393Z,23.20
2019-02-26T07:31:54.106Z,22.30
2019-02-26T07:32:53.403Z,22.10
2019-02-26T07:33:55.739Z,22.20
2019-02-26T07:34:53.415Z,21.90
2019-02-26T07:35:56.387Z,23.00
2019-02-26T07:36:53.414Z,22.60
2019-02-26T07:37:54.535Z,22.30
2019-02-26T07:38:56.012Z,23.90
2019-02-26T07:39:53.435Z,23.30
2019-02-26T07:40:54.316Z,23.60
2019-02-26T07:41:54.400Z,23.90
2019-02-26T07:42:53.449Z,22.20
2019-02-26T07:43:54.709Z,23.80
2019-02-26T07:44:53.462Z,25.50
2019-02-26T07:45:53.474Z,23.10
2019-02-26T07:46:53.472Z,21.60
2019-02-26T07:47:55.981Z,23.00
2019-02-26T07:48:53.962Z,23.60
2019-02-26T07:49:56.476Z,21.30
2019-02-26T07:50:53.507Z,21.50
2019-02-26T07:51:55.512Z,21.70
2019-02-26T07:52:55.250Z,21.10
2019-02-26T07:53:54.354Z,21.20
2019-02-26T07:54:53.546Z,22.60
2019-02-26T07:55:53.558Z,24.30
2019-02-26T07:56:55.111Z,24.10
2019-02-26T07:57:53.588Z,23.80
2019-02-26T07:58:56.924Z,23.20
2019-02-26T07:59:53.618Z,23.40
2019-02-26T08:00:53.611Z,22.30
2019-02-26T08:01:53.623Z,23.90
2019-02-26T08:02:56.389Z,23.20
2019-02-26T08:03:53.651Z,22.10
2019-02-26T08:04:53.659Z,22.50
2019-02-26T08:05:53.671Z,23.20
2019-02-26T08:06:56.270Z,23.40
2019-02-26T08:07:56.268Z,22.50
2019-02-26T08:08:53.723Z,21.60
2019-02-26T08:09:53.725Z,21.80
2019-02-26T08:10:53.734Z,22.60
2019-02-26T08:11:53.747Z,24.10
2019-02-26T08:12:53.759Z,23.30
2019-02-26T08:13:54.319Z,23.10
2019-02-26T08:14:53.785Z,23.70
2019-02-26T08:15:55.137Z,23.20
2019-02-26T08:16:56.067Z,22.40
2019-02-26T08:17:57.554Z,22.80
2019-02-26T08:18:54.726Z,23.60
2019-02-26T08:20:15.072Z,22.90
2019-02-26T08:20:56.887Z,24.20
2019-02-26T08:21:55.016Z,25.00
2019-02-26T08:22:54.715Z,24.80
2019-02-26T08:23:53.917Z,23.90
2019-02-26T08:24:55.524Z,23.00
2019-02-26T08:25:55.654Z,22.70
2019-02-26T08:26:53.967Z,23.90
2019-02-26T08:27:55.970Z,22.60
2019-02-26T08:28:53.991Z,22.50
2019-02-26T08:29:56.023Z,22.70
2019-02-26T08:30:55.235Z,22.70
2019-02-26T08:31:54.590Z,20.80
2019-02-26T08:32:56.107Z,19.90
2019-02-26T08:33:54.072Z,20.20
2019-02-26T08:34:54.099Z,21.00
2019-02-26T08:35:56.145Z,20.30
2019-02-26T08:36:54.116Z,20.80
2019-02-26T08:37:54.133Z,20.40
2019-02-26T08:38:56.488Z,19.80
2019-02-26T08:39:57.421Z,20.30
2019-02-26T08:40:54.191Z,19.40
2019-02-26T08:41:54.200Z,20.00
2019-02-26T08:42:54.212Z,19.90
2019-02-26T08:43:56.299Z,19.70
2019-02-26T08:44:55.906Z,19.50
2019-02-26T08:45:54.259Z,18.80
2019-02-26T08:46:54.279Z,19.90
2019-02-26T08:47:54.298Z,18.90
2019-02-26T08:48:54.312Z,18.20
2019-02-26T08:49:54.325Z,19.10
2019-02-26T08:50:55.836Z,20.10
2019-02-26T08:51:54.352Z,29.10
2019-02-26T08:52:56.241Z,22.70
2019-02-26T08:53:55.320Z,20.20
2019-02-26T08:54:54.407Z,19.50
2019-02-26T08:55:56.278Z,20.10
2019-02-26T08:56:54.463Z,20.10
2019-02-26T08:57:56.404Z,20.10
2019-02-26T08:58:54.472Z,20.30
2019-02-26T08:59:54.711Z,18.70
2019-02-26T09:00:54.503Z,18.20
2019-02-26T09:01:54.522Z,18.90
2019-02-26T09:02:56.710Z,18.40
2019-02-26T09:03:55.825Z,18.70
2019-02-26T09:04:54.560Z,18.10
2019-02-26T09:05:57.013Z,18.60
2019-02-26T09:06:55.451Z,19.10
2019-02-26T09:07:54.622Z,18.20
2019-02-26T09:08:55.532Z,18.10
2019-02-26T09:09:57.279Z,19.20
2019-02-26T09:10:54.673Z,17.70
2019-02-26T09:11:55.911Z,16.80
2019-02-26T09:12:54.706Z,17.30
2019-02-26T09:13:56.335Z,18.50
2019-02-26T09:14:54.739Z,17.40
2019-02-26T09:15:55.610Z,17.60
2019-02-26T09:16:56.898Z,17.20
2019-02-26T09:17:54.788Z,17.10
2019-02-26T09:18:54.816Z,17.70
2019-02-26T09:20:06.437Z,18.10
2019-02-26T09:20:54.838Z,17.90
2019-02-26T09:21:54.917Z,17.20
2019-02-26T09:22:56.477Z,16.20
2019-02-26T09:23:56.915Z,17.50
2019-02-26T09:24:56.840Z,16.90
2019-02-26T09:25:57.173Z,17.30
2019-02-26T09:26:57.493Z,17.30
2019-02-26T09:27:54.956Z,18.60
2019-02-26T09:28:57.081Z,17.90
2019-02-26T09:29:54.995Z,17.00
2019-02-26T09:30:56.301Z,15.80
2019-02-26T09:31:55.026Z,16.20
2019-02-26T09:32:55.044Z,16.40
2019-02-26T09:33:55.057Z,16.30
2019-02-26T09:34:56.848Z,15.50
2019-02-26T09:35:56.729Z,15.80
2019-02-26T09:36:55.543Z,17.80
2019-02-26T09:37:58.392Z,16.10
2019-02-26T09:38:55.146Z,16.10
2019-02-26T09:39:57.370Z,15.80
2019-02-26T09:40:56.967Z,16.00
2019-02-26T09:41:57.012Z,15.40
2019-02-26T09:42:58.152Z,16.00
2019-02-26T09:43:55.238Z,15.30
2019-02-26T09:44:55.936Z,14.80
2019-02-26T09:45:55.266Z,15.80
2019-02-26T09:46:57.273Z,14.40
2019-02-26T09:47:57.774Z,14.80
2019-02-26T09:48:55.325Z,16.40
2019-02-26T09:49:56.181Z,15.30
2019-02-26T09:50:55.357Z,14.60
2019-02-26T09:51:56.836Z,15.00
2019-02-26T09:52:58.239Z,14.10
2019-02-26T09:53:56.592Z,15.00
2019-02-26T09:54:55.448Z,14.90
2019-02-26T09:55:55.448Z,17.00
2019-02-26T09:56:55.473Z,15.10
2019-02-26T09:57:55.477Z,16.50
2019-02-26T09:58:55.498Z,16.70
2019-02-26T09:59:58.162Z,15.40
2019-02-26T10:00:55.534Z,15.20
2019-02-26T10:01:56.526Z,14.70
2019-02-26T10:02:55.579Z,16.10
2019-02-26T10:03:55.969Z,16.00
2019-02-26T10:04:55.618Z,15.30
2019-02-26T10:05:57.739Z,14.70
2019-02-26T10:06:55.639Z,14.90
2019-02-26T10:07:58.022Z,14.30
2019-02-26T10:08:56.166Z,15.10
2019-02-26T10:09:55.706Z,14.30
2019-02-26T10:10:57.651Z,14.50
2019-02-26T10:11:55.735Z,14.40
2019-02-26T10:12:57.323Z,14.20
2019-02-26T10:13:55.771Z,14.40
2019-02-26T10:14:59.589Z,14.00
2019-02-26T10:15:58.255Z,13.20
2019-02-26T10:16:57.008Z,14.30
2019-02-26T10:17:58.310Z,13.50
2019-02-26T10:18:56.805Z,14.00
2019-02-26T10:19:56.968Z,13.10
2019-02-26T10:20:56.009Z,13.40
2019-02-26T10:21:57.274Z,13.70
2019-02-26T10:22:57.815Z,13.30
2019-02-26T10:23:56.709Z,13.40
2019-02-26T10:24:56.000Z,13.50
2019-02-26T10:25:57.817Z,13.10
2019-02-26T10:26:58.659Z,13.50
2019-02-26T10:27:56.019Z,12.50
2019-02-26T10:28:59.076Z,12.90
2019-02-26T10:29:56.051Z,14.20
2019-02-26T10:30:57.009Z,13.60
2019-02-26T10:31:56.803Z,13.30
2019-02-26T10:32:56.116Z,14.40
2019-02-26T10:33:56.144Z,14.40
2019-02-26T10:34:56.152Z,13.10
2019-02-26T10:35:56.168Z,13.70
2019-02-26T10:36:56.188Z,15.60
2019-02-26T10:37:57.056Z,13.80
2019-02-26T10:38:57.869Z,13.80
2019-02-26T10:39:56.261Z,14.20
2019-02-26T10:40:58.845Z,15.10
2019-02-26T10:41:56.285Z,14.40
2019-02-26T10:42:56.299Z,15.10
2019-02-26T10:43:56.331Z,14.50
2019-02-26T10:44:56.510Z,14.20
2019-02-26T10:45:56.359Z,14.80
2019-02-26T10:46:58.330Z,13.80
2019-02-26T10:47:58.749Z,14.70
2019-02-26T10:48:56.428Z,15.80
2019-02-26T10:49:56.547Z,14.30
2019-02-26T10:50:56.554Z,15.20
2019-02-26T10:51:57.738Z,15.20
2019-02-26T10:53:01.421Z,15.10
2019-02-26T10:53:57.530Z,15.50
2019-02-26T10:54:56.530Z,15.00
2019-02-26T10:55:56.544Z,15.00
2019-02-26T10:56:57.420Z,15.90
2019-02-26T10:57:58.613Z,15.20
2019-02-26T10:59:01.937Z,15.40
2019-02-26T10:59:59.175Z,16.30
2019-02-26T11:00:59.405Z,15.00
2019-02-26T11:01:58.422Z,15.60
2019-02-26T11:02:56.685Z,15.90
2019-02-26T11:03:56.721Z,15.70
2019-02-26T11:04:56.723Z,16.20
2019-02-26T11:05:56.734Z,14.50
2019-02-26T11:06:56.747Z,15.10
2019-02-26T11:07:59.794Z,14.90
2019-02-26T11:09:01.121Z,14.90
2019-02-26T11:09:58.905Z,15.40
2019-02-26T11:10:56.827Z,15.80
2019-02-26T11:11:58.362Z,15.40
2019-02-26T11:12:59.504Z,15.30
2019-02-26T11:13:56.880Z,15.40
2019-02-26T11:14:58.636Z,15.50
2019-02-26T11:15:59.835Z,13.80
2019-02-26T11:16:56.947Z,15.40
2019-02-26T11:17:56.967Z,15.30
2019-02-26T11:18:58.807Z,15.50
2019-02-26T11:19:58.519Z,15.10
2019-02-26T11:20:59.291Z,15.70
2019-02-26T11:21:58.633Z,16.10
2019-02-26T11:22:57.083Z,16.80
2019-02-26T11:23:58.505Z,16.50
2019-02-26T11:24:58.557Z,16.60
2019-02-26T11:25:57.129Z,16.30
2019-02-26T11:26:57.181Z,16.60
2019-02-26T11:27:57.168Z,15.50
2019-02-26T11:28:57.182Z,16.40
2019-02-26T11:29:59.470Z,15.80
2019-02-26T11:30:57.222Z,15.60
2019-02-26T11:31:57.239Z,15.50
2019-02-26T11:33:02.150Z,15.30
2019-02-26T11:34:00.109Z,16.10
2019-02-26T11:34:58.018Z,15.70
2019-02-26T11:35:59.538Z,14.90
2019-02-26T11:36:58.493Z,16.00
2019-02-26T11:37:58.118Z,15.90
2019-02-26T11:38:59.909Z,16.30
2019-02-26T11:39:58.281Z,16.20
2019-02-26T11:40:57.427Z,16.60
2019-02-26T11:42:00.722Z,15.00
2019-02-26T11:42:59.802Z,16.40
2019-02-26T11:43:57.480Z,14.90
2019-02-26T11:44:57.508Z,16.40
2019-02-26T11:45:59.156Z,17.00
2019-02-26T11:46:58.246Z,15.30
2019-02-26T11:48:00.368Z,15.90
2019-02-26T11:48:57.679Z,16.00
2019-02-26T11:49:59.516Z,15.30
2019-02-26T11:51:00.756Z,16.90
2019-02-26T11:51:57.639Z,16.10
2019-02-26T11:52:57.660Z,15.80
2019-02-26T11:54:00.125Z,15.10
2019-02-26T11:54:58.825Z,15.20
2019-02-26T11:55:59.909Z,15.50
2019-02-26T11:56:57.738Z,15.90
2019-02-26T11:57:57.762Z,15.50
2019-02-26T11:58:57.779Z,17.60
2019-02-26T11:59:59.422Z,15.70
2019-02-26T12:01:59.092Z,15.30
2019-02-26T12:02:57.873Z,17.70
2019-02-26T12:04:02.511Z,19.20
2019-02-26T12:04:59.887Z,17.80
2019-02-26T12:06:00.554Z,16.80
2019-02-26T12:06:58.499Z,16.90
2019-02-26T12:07:58.825Z,16.00
2019-02-26T12:08:57.982Z,17.00
2019-02-26T12:10:01.878Z,17.50
2019-02-26T12:11:03.343Z,16.90
2019-02-26T12:11:58.525Z,14.80
2019-02-26T12:13:00.035Z,15.20
2019-02-26T12:13:58.081Z,19.00
2019-02-26T12:14:58.107Z,16.00
2019-02-26T12:15:58.134Z,15.40
2019-02-26T12:16:58.151Z,15.60
2019-02-26T12:17:58.771Z,15.80
2019-02-26T12:18:58.922Z,13.70
2019-02-26T12:20:00.306Z,13.60
2019-02-26T12:21:00.007Z,13.90
2019-02-26T12:22:01.283Z,14.60
2019-02-26T12:22:58.261Z,14.70
2019-02-26T12:24:00.577Z,12.80
2019-02-26T12:24:59.984Z,14.30
2019-02-26T12:26:01.020Z,14.90
2019-02-26T12:26:58.353Z,14.30
2019-02-26T12:28:00.237Z,14.10
2019-02-26T12:28:59.580Z,15.10
2019-02-26T12:29:58.419Z,14.50
2019-02-26T12:31:00.768Z,14.30
2019-02-26T12:32:01.067Z,14.80
2019-02-26T12:32:58.483Z,14.80
2019-02-26T12:33:58.499Z,14.50
2019-02-26T12:34:58.525Z,14.70
2019-02-26T12:35:59.522Z,13.90
2019-02-26T12:37:02.069Z,14.50
2019-02-26T12:38:59.936Z,13.60
2019-02-26T12:39:58.622Z,13.70
2019-02-26T12:40:58.642Z,14.50
2019-02-26T12:41:58.669Z,15.50
2019-02-26T12:42:58.686Z,14.70
2019-02-26T12:44:00.849Z,15.00
2019-02-26T12:45:01.847Z,14.00
2019-02-26T12:45:59.425Z,13.30
2019-02-26T12:47:00.487Z,12.90
2019-02-26T12:47:58.788Z,12.70
2019-02-26T12:48:58.811Z,13.00
2019-02-26T12:50:01.984Z,12.50
2019-02-26T12:51:01.467Z,12.90
2019-02-26T12:51:59.928Z,13.30
2019-02-26T12:52:58.904Z,14.80
2019-02-26T12:54:00.539Z,13.50
2019-02-26T12:55:00.687Z,13.10
2019-02-26T12:56:01.975Z,13.90
2019-02-26T12:57:00.638Z,13.60
2019-02-26T12:57:59.626Z,13.70